Hope, Michigan
Current Conditions -  °F | °C
As of 8:31 PM on Saturday 25 Oct 2014 (Local Time) from KIKW Reporting Station
Clear Clear  
Wind Chill: 12°   Ceiling: Unl
Heat Index: 12°   Visibility: 10mi
Dew Point:   Wind: 5mph
Humidity: 42%   Direction: 270°W
Pressure: 29.77"   Gusts: NA
Location:  43.76°N, 84.34°W
Report Text: KIKW 260031Z AUTO 27004KT 10SM CLR 12/00 A2977 RMK AO2 T01241003
Loading
Personal Weather Stations






























Interactive Weather Map
Tropical Storm Tracking
New forecast layout! Learn more

10-Day Weather Forecast

Advertisements
Track Severe Weather on mobile